Time;durP1;ratioP1;P1;durP2;ratioP2;P2;SDS_P1;SDS_P2;PMS_P1;PMS_P2;Temp;Humidity;BMP_temperature;BMP_pressure;BME280_temperature;BME280_humidity;BME280_pressure;Samples;Min_cycle;Max_cycle;Signal;HPM_P1;HPM_P2
2024/04/10 00:01:44;;;;;;;0.30;0.30;;;;;;;;;;5360416;26;20313;-73
2024/04/10 00:04:11;;;;;;;0.30;0.30;;;;;;;;;;5394991;26;20265;-75
2024/04/10 00:07:01;;;;;;;0.30;0.30;;;;;;;;;;5386631;26;20288;-73
2024/04/10 00:09:28;;;;;;;0.30;0.30;;;;;;;;;;5354473;26;20796;-75
2024/04/10 00:11:54;;;;;;;0.30;0.30;;;;;;;;;;5351463;26;20329;-74
2024/04/10 00:14:21;;;;;;;0.30;0.30;;;;;;;;;;5356660;26;20363;-74
2024/04/10 00:16:49;;;;;;;0.30;0.30;;;;;;;;;;5356820;26;20689;-72
2024/04/10 00:19:15;;;;;;;0.20;0.20;;;;;;;;;;5359735;26;20262;-73
2024/04/10 00:21:43;;;;;;;0.30;0.30;;;;;;;;;;5357898;26;20309;-72
2024/04/10 00:24:11;;;;;;;0.30;0.30;;;;;;;;;;5360383;26;20747;-74
2024/04/10 00:26:38;;;;;;;0.40;0.40;;;;;;;;;;5357768;26;20262;-74
2024/04/10 00:29:04;;;;;;;0.27;0.27;;;;;;;;;;5366646;26;20266;-72
2024/04/10 00:31:31;;;;;;;0.30;0.30;;;;;;;;;;5364117;26;20258;-72
2024/04/10 00:33:58;;;;;;;0.30;0.30;;;;;;;;;;5361574;26;20298;-73
2024/04/10 00:36:27;;;;;;;0.20;0.20;;;;;;;;;;5362794;26;20850;-73
2024/04/10 00:38:53;;;;;;;0.30;0.30;;;;;;;;;;5371758;26;20262;-73
2024/04/10 00:41:20;;;;;;;0.20;0.20;;;;;;;;;;5372992;26;20329;-73
2024/04/10 00:43:47;;;;;;;0.30;0.30;;;;;;;;;;5359596;26;20321;-72
2024/04/10 00:46:18;;;;;;;0.30;0.30;;;;;;;;;;5357305;26;20312;-74
2024/04/10 00:48:45;;;;;;;0.30;0.30;;;;;;;;;;5353742;26;20318;-73
2024/04/10 00:51:32;;;;;;;0.30;0.30;;;;;;;;;;5382170;26;20788;-73
2024/04/10 00:54:02;;;;;;;0.30;0.30;;;;;;;;;;5380033;26;20340;-72
2024/04/10 00:56:29;;;;;;;0.30;0.30;;;;;;;;;;5351247;26;20262;-72
2024/04/10 00:58:57;;;;;;;0.30;0.30;;;;;;;;;;5387913;26;20305;-73
2024/04/10 01:01:24;;;;;;;0.30;0.30;;;;;;;;;;5369045;26;20270;-73
2024/04/10 01:03:50;;;;;;;0.30;0.30;;;;;;;;;;5389378;26;20894;-73
2024/04/10 01:06:17;;;;;;;0.20;0.20;;;;;;;;;;5393113;26;20254;-73
2024/04/10 01:08:47;;;;;;;0.20;0.20;;;;;;;;;;5390813;26;20377;-72
2024/04/10 01:11:14;;;;;;;0.30;0.30;;;;;;;;;;5392106;26;20312;-73
2024/04/10 01:13:43;;;;;;;0.20;0.20;;;;;;;;;;5390775;26;20767;-72
2024/04/10 01:16:09;;;;;;;0.30;0.30;;;;;;;;;;5398129;26;20682;-73
2024/04/10 01:18:36;;;;;;;0.30;0.30;;;;;;;;;;5386385;26;20877;-73
2024/04/10 01:21:03;;;;;;;0.20;0.20;;;;;;;;;;5388880;26;20288;-73
2024/04/10 01:23:29;;;;;;;0.30;0.30;;;;;;;;;;5389411;26;20816;-75
2024/04/10 01:25:56;;;;;;;0.20;0.20;;;;;;;;;;5395796;26;20293;-73
2024/04/10 01:28:23;;;;;;;0.30;0.30;;;;;;;;;;5424975;26;20260;-72
2024/04/10 01:30:50;;;;;;;0.30;0.30;;;;;;;;;;5393000;26;20309;-73
2024/04/10 01:33:16;;;;;;;0.30;0.30;;;;;;;;;;5392777;26;20305;-73
2024/04/10 01:35:43;;;;;;;0.30;0.30;;;;;;;;;;5386615;26;20273;-73
2024/04/10 01:38:14;;;;;;;0.30;0.30;;;;;;;;;;5388452;26;20642;-73
2024/04/10 01:40:41;;;;;;;0.30;0.30;;;;;;;;;;5384285;26;20372;-72
2024/04/10 01:43:08;;;;;;;0.63;0.63;;;;;;;;;;5385618;26;20328;-73
2024/04/10 01:45:36;;;;;;;0.73;0.73;;;;;;;;;;5388770;26;20268;-73
2024/04/10 01:48:03;;;;;;;0.30;0.30;;;;;;;;;;5388878;26;20309;-73
2024/04/10 01:50:30;;;;;;;0.30;0.30;;;;;;;;;;5387258;26;20308;-72
2024/04/10 01:52:57;;;;;;;0.30;0.30;;;;;;;;;;5394814;26;20658;-73
2024/04/10 01:55:23;;;;;;;0.30;0.30;;;;;;;;;;5395592;26;20261;-74
2024/04/10 01:57:50;;;;;;;0.30;0.30;;;;;;;;;;5393268;26;20323;-74
2024/04/10 02:00:19;;;;;;;0.30;0.30;;;;;;;;;;5392620;26;20319;-73
2024/04/10 02:02:46;;;;;;;0.30;0.30;;;;;;;;;;5398613;26;20358;-72
2024/04/10 02:05:13;;;;;;;0.30;0.30;;;;;;;;;;5369564;26;20258;-73
2024/04/10 02:07:41;;;;;;;0.20;0.20;;;;;;;;;;5349362;26;20267;-73
2024/04/10 02:10:07;;;;;;;0.20;0.20;;;;;;;;;;5351937;26;20303;-73
2024/04/10 02:12:34;;;;;;;0.30;0.30;;;;;;;;;;5350294;26;20309;-72
2024/04/10 02:15:00;;;;;;;0.30;0.30;;;;;;;;;;5356099;26;20940;-72
2024/04/10 02:17:27;;;;;;;0.30;0.30;;;;;;;;;;5353603;26;20266;-72
2024/04/10 02:19:55;;;;;;;0.50;0.50;;;;;;;;;;5360287;26;20284;-73
2024/04/10 02:22:23;;;;;;;0.97;0.70;;;;;;;;;;5360371;26;20336;-73
2024/04/10 02:24:51;;;;;;;0.30;0.30;;;;;;;;;;5353366;26;20250;-72
2024/04/10 02:27:19;;;;;;;0.30;0.30;;;;;;;;;;5351490;26;20262;-72
2024/04/10 02:29:46;;;;;;;0.30;0.30;;;;;;;;;;5354401;26;20255;-74
2024/04/10 02:32:13;;;;;;;0.40;0.40;;;;;;;;;;5352905;26;20320;-74
2024/04/10 02:34:39;;;;;;;0.30;0.30;;;;;;;;;;5360018;26;20683;-74
2024/04/10 02:37:06;;;;;;;0.30;0.30;;;;;;;;;;5372984;26;20258;-74
2024/04/10 02:39:35;;;;;;;0.30;0.30;;;;;;;;;;5371453;26;20267;-74
2024/04/10 02:42:01;;;;;;;0.30;0.30;;;;;;;;;;5369356;26;20254;-74
2024/04/10 02:44:28;;;;;;;0.30;0.30;;;;;;;;;;5351658;26;20295;-74
2024/04/10 02:46:55;;;;;;;0.47;0.47;;;;;;;;;;5361509;26;20258;-73
2024/04/10 02:49:22;;;;;;;0.20;0.20;;;;;;;;;;5359619;26;20299;-73
2024/04/10 02:51:48;;;;;;;0.30;0.30;;;;;;;;;;5355602;26;20828;-73
2024/04/10 02:54:15;;;;;;;0.20;0.20;;;;;;;;;;5368437;26;20270;-73
2024/04/10 02:56:41;;;;;;;0.30;0.30;;;;;;;;;;5350425;26;20321;-72
2024/04/10 02:59:08;;;;;;;0.30;0.30;;;;;;;;;;5358979;26;20292;-72
2024/04/10 03:01:35;;;;;;;0.30;0.30;;;;;;;;;;5377575;26;20256;-73
2024/04/10 03:04:01;;;;;;;0.30;0.30;;;;;;;;;;5389760;26;20262;-73
2024/04/10 03:06:28;;;;;;;0.50;0.50;;;;;;;;;;5386682;26;20253;-72
2024/04/10 03:08:54;;;;;;;0.30;0.30;;;;;;;;;;5385882;26;22604;-73
2024/04/10 03:11:21;;;;;;;0.30;0.30;;;;;;;;;;5387384;26;20336;-73
2024/04/10 03:13:48;;;;;;;0.30;0.30;;;;;;;;;;5392615;26;20257;-73
2024/04/10 03:16:16;;;;;;;0.20;0.20;;;;;;;;;;5386559;26;20266;-73
2024/04/10 03:18:43;;;;;;;0.30;0.30;;;;;;;;;;5382657;26;20706;-72
2024/04/10 03:21:10;;;;;;;0.30;0.30;;;;;;;;;;5387080;26;20737;-73
2024/04/10 03:23:36;;;;;;;0.30;0.30;;;;;;;;;;5385360;26;20846;-72
2024/04/10 03:26:04;;;;;;;0.30;0.30;;;;;;;;;;5386092;26;20865;-73
2024/04/10 03:28:33;;;;;;;0.30;0.30;;;;;;;;;;5385169;26;20839;-74
2024/04/10 03:31:04;;;;;;;0.30;0.30;;;;;;;;;;5383612;26;20335;-73
2024/04/10 03:33:30;;;;;;;0.30;0.30;;;;;;;;;;5380946;26;20261;-73
2024/04/10 03:35:58;;;;;;;0.30;0.30;;;;;;;;;;5380185;26;20652;-72
2024/04/10 03:38:24;;;;;;;0.30;0.30;;;;;;;;;;5389033;26;20684;-72
2024/04/10 03:40:51;;;;;;;0.30;0.30;;;;;;;;;;5392468;26;20258;-73
2024/04/10 03:43:18;;;;;;;0.30;0.30;;;;;;;;;;5404083;26;20303;-72
2024/04/10 03:45:46;;;;;;;0.30;0.30;;;;;;;;;;5404860;26;20627;-73
2024/04/10 03:48:19;;;;;;;0.30;0.30;;;;;;;;;;5390928;26;20283;-73
2024/04/10 03:50:46;;;;;;;0.40;0.40;;;;;;;;;;5349842;26;20287;-72
2024/04/10 03:53:13;;;;;;;0.30;0.30;;;;;;;;;;5377600;26;20303;-73
2024/04/10 03:55:40;;;;;;;0.30;0.30;;;;;;;;;;5366783;26;20301;-75
2024/04/10 03:58:06;;;;;;;0.30;0.30;;;;;;;;;;5353275;26;20671;-72
2024/04/10 04:00:34;;;;;;;0.30;0.30;;;;;;;;;;5349810;26;20258;-73
2024/04/10 04:03:01;;;;;;;0.30;0.30;;;;;;;;;;5358495;26;20270;-73
2024/04/10 04:05:27;;;;;;;0.30;0.30;;;;;;;;;;5358836;26;20646;-74
2024/04/10 04:07:55;;;;;;;0.30;0.30;;;;;;;;;;5360760;26;20262;-74
2024/04/10 04:10:22;;;;;;;0.30;0.30;;;;;;;;;;5357771;26;20254;-75
2024/04/10 04:12:48;;;;;;;0.30;0.30;;;;;;;;;;5355942;26;20305;-73
2024/04/10 04:15:15;;;;;;;0.40;0.40;;;;;;;;;;5353239;26;20399;-72
2024/04/10 04:18:07;;;;;;;0.53;0.53;;;;;;;;;;5355719;26;20312;-73
2024/04/10 04:20:33;;;;;;;0.30;0.30;;;;;;;;;;5403996;26;20265;-74
2024/04/10 04:23:02;;;;;;;0.23;0.23;;;;;;;;;;5354461;26;20783;-73
2024/04/10 04:25:33;;;;;;;0.30;0.30;;;;;;;;;;5357264;26;20289;-72
2024/04/10 04:28:01;;;;;;;0.30;0.30;;;;;;;;;;5385195;26;20688;-74
2024/04/10 04:30:27;;;;;;;0.30;0.30;;;;;;;;;;5358476;26;20789;-74
2024/04/10 04:32:54;;;;;;;0.70;0.70;;;;;;;;;;5363460;26;20299;-72
2024/04/10 04:35:21;;;;;;;0.30;0.30;;;;;;;;;;5361345;26;20292;-73
2024/04/10 04:37:55;;;;;;;0.30;0.30;;;;;;;;;;5367249;26;20301;-73
2024/04/10 04:40:22;;;;;;;0.20;0.20;;;;;;;;;;5391436;26;20323;-76
2024/04/10 04:42:48;;;;;;;0.20;0.20;;;;;;;;;;5387357;26;20257;-73
2024/04/10 04:45:16;;;;;;;0.30;0.30;;;;;;;;;;5381570;26;20250;-72
2024/04/10 04:47:48;;;;;;;0.30;0.30;;;;;;;;;;5367459;26;20325;-73
2024/04/10 04:50:41;;;;;;;0.30;0.30;;;;;;;;;;5383846;26;20301;-73
2024/04/10 04:53:10;;;;;;;0.30;0.30;;;;;;;;;;5406008;26;20253;-73
2024/04/10 04:55:38;;;;;;;0.30;0.30;;;;;;;;;;5394604;26;20265;-74
2024/04/10 04:58:05;;;;;;;0.30;0.30;;;;;;;;;;5373449;26;20327;-75
2024/04/10 05:00:33;;;;;;;0.30;0.30;;;;;;;;;;5357702;26;20254;-74
2024/04/10 05:03:00;;;;;;;0.30;0.30;;;;;;;;;;5356960;26;20317;-73
2024/04/10 05:05:27;;;;;;;0.30;0.30;;;;;;;;;;5355177;26;20258;-74
2024/04/10 05:08:17;;;;;;;0.20;0.20;;;;;;;;;;5357171;26;20294;-72
2024/04/10 05:10:49;;;;;;;0.30;0.30;;;;;;;;;;5369266;26;20278;-72
2024/04/10 05:13:16;;;;;;;0.30;0.30;;;;;;;;;;5360839;26;20258;-74
2024/04/10 05:15:55;;;;;;;0.30;0.30;;;;;;;;;;5355299;26;20298;-73
2024/04/10 05:18:22;;;;;;;0.20;0.20;;;;;;;;;;5355762;26;20297;-74
2024/04/10 05:20:49;;;;;;;0.30;0.30;;;;;;;;;;5355768;26;20654;-73
2024/04/10 05:23:16;;;;;;;0.30;0.30;;;;;;;;;;5356048;26;23501;-74
2024/04/10 05:25:42;;;;;;;0.20;0.20;;;;;;;;;;5355457;26;20296;-73
2024/04/10 05:28:28;;;;;;;0.30;0.30;;;;;;;;;;5362703;26;20337;-73
2024/04/10 05:31:06;;;;;;;0.30;0.30;;;;;;;;;;5361745;26;20290;-73
2024/04/10 05:33:33;;;;;;;0.20;0.20;;;;;;;;;;5361980;26;20295;-73
2024/04/10 05:36:01;;;;;;;0.30;0.30;;;;;;;;;;5360945;26;20267;-73
2024/04/10 05:38:30;;;;;;;0.30;0.30;;;;;;;;;;5384248;26;20292;-73
2024/04/10 05:40:57;;;;;;;0.27;0.27;;;;;;;;;;5357654;26;20777;-73
2024/04/10 05:43:25;;;;;;;0.30;0.30;;;;;;;;;;5370603;26;21100;-73
2024/04/10 05:45:56;;;;;;;0.20;0.20;;;;;;;;;;5395879;26;20261;-73
2024/04/10 05:48:22;;;;;;;0.30;0.30;;;;;;;;;;5398562;26;20905;-73
2024/04/10 05:50:55;;;;;;;0.30;0.30;;;;;;;;;;5396092;26;20268;-73
2024/04/10 05:53:22;;;;;;;0.30;0.30;;;;;;;;;;5394146;26;20287;-73
2024/04/10 05:55:49;;;;;;;0.30;0.30;;;;;;;;;;5393842;26;20292;-73
2024/04/10 05:58:16;;;;;;;0.40;0.40;;;;;;;;;;5396183;26;20755;-74
2024/04/10 06:00:43;;;;;;;0.30;0.30;;;;;;;;;;5393982;26;20761;-74
2024/04/10 06:03:33;;;;;;;0.20;0.20;;;;;;;;;;5397533;26;20323;-73
2024/04/10 06:06:08;;;;;;;0.40;0.40;;;;;;;;;;5396235;26;21079;-73
2024/04/10 06:08:35;;;;;;;0.30;0.30;;;;;;;;;;5394900;26;20296;-74
2024/04/10 06:11:02;;;;;;;0.30;0.30;;;;;;;;;;5423522;26;20304;-73
2024/04/10 06:13:28;;;;;;;1.23;0.93;;;;;;;;;;5392506;26;20257;-73
2024/04/10 06:15:59;;;;;;;0.30;0.30;;;;;;;;;;5396060;26;20311;-74
2024/04/10 06:18:26;;;;;;;0.30;0.30;;;;;;;;;;5396553;26;20351;-73
2024/04/10 06:21:00;;;;;;;0.30;0.30;;;;;;;;;;5392321;26;20266;-73
2024/04/10 06:23:28;;;;;;;0.30;0.30;;;;;;;;;;5386217;26;20252;-73
2024/04/10 06:25:55;;;;;;;0.30;0.30;;;;;;;;;;5387420;26;20296;-73
2024/04/10 06:28:22;;;;;;;0.30;0.30;;;;;;;;;;5386415;26;20261;-73
2024/04/10 06:30:59;;;;;;;0.20;0.20;;;;;;;;;;5395237;26;20288;-74
2024/04/10 06:33:26;;;;;;;0.30;0.30;;;;;;;;;;5396539;26;20261;-73
2024/04/10 06:35:53;;;;;;;0.30;0.30;;;;;;;;;;5397053;26;20265;-73
2024/04/10 06:38:20;;;;;;;0.30;0.30;;;;;;;;;;5390138;26;20261;-75
2024/04/10 06:40:54;;;;;;;0.30;0.30;;;;;;;;;;5387141;26;20300;-74
2024/04/10 06:43:21;;;;;;;0.30;0.30;;;;;;;;;;5391771;26;20288;-74
2024/04/10 06:46:12;;;;;;;0.40;0.40;;;;;;;;;;5376977;26;22410;-75
2024/04/10 06:48:39;;;;;;;0.30;0.30;;;;;;;;;;5402357;26;20286;-74
2024/04/10 06:51:06;;;;;;;0.30;0.30;;;;;;;;;;5412901;26;20257;-73
2024/04/10 06:53:33;;;;;;;0.30;0.30;;;;;;;;;;5404459;26;20301;-73
2024/04/10 06:56:02;;;;;;;0.30;0.30;;;;;;;;;;5419202;26;20292;-77
2024/04/10 06:58:33;;;;;;;0.30;0.30;;;;;;;;;;5419266;26;20249;-77
2024/04/10 07:01:05;;;;;;;0.27;0.27;;;;;;;;;;5406999;26;20292;-73
2024/04/10 07:03:35;;;;;;;0.30;0.30;;;;;;;;;;5406519;26;20261;-74
2024/04/10 07:06:16;;;;;;;0.40;0.40;;;;;;;;;;5403919;26;21142;-73
2024/04/10 07:08:47;;;;;;;0.30;0.30;;;;;;;;;;5402488;26;20275;-73
2024/04/10 07:11:19;;;;;;;0.30;0.30;;;;;;;;;;5399340;26;20332;-73
2024/04/10 07:13:53;;;;;;;0.40;0.40;;;;;;;;;;5394139;26;20304;-73
2024/04/10 07:16:26;;;;;;;0.30;0.30;;;;;;;;;;5395269;26;20262;-75
2024/04/10 07:18:58;;;;;;;0.30;0.30;;;;;;;;;;5414245;26;20335;-74
2024/04/10 07:21:24;;;;;;;0.30;0.30;;;;;;;;;;5358042;26;20355;-73
2024/04/10 07:23:51;;;;;;;0.30;0.30;;;;;;;;;;5369967;26;20285;-74
2024/04/10 07:26:24;;;;;;;0.30;0.30;;;;;;;;;;5356682;26;20332;-73
2024/04/10 07:28:55;;;;;;;0.40;0.40;;;;;;;;;;5357454;26;20321;-74
2024/04/10 07:31:34;;;;;;;0.30;0.30;;;;;;;;;;5358438;26;20800;-74
2024/04/10 07:34:03;;;;;;;0.53;0.53;;;;;;;;;;5355991;26;20774;-74
2024/04/10 07:36:31;;;;;;;0.30;0.30;;;;;;;;;;5351531;26;20296;-74
2024/04/10 07:39:04;;;;;;;0.30;0.30;;;;;;;;;;5378492;26;20330;-74
2024/04/10 07:41:59;;;;;;;0.30;0.30;;;;;;;;;;5354687;26;20290;-73
2024/04/10 07:44:25;;;;;;;0.80;0.80;;;;;;;;;;5359006;26;20257;-73
2024/04/10 07:47:15;;;;;;;0.30;0.30;;;;;;;;;;5361737;26;20300;-76
2024/04/10 07:49:43;;;;;;;0.30;0.30;;;;;;;;;;5359948;26;20304;-73
2024/04/10 07:52:10;;;;;;;0.30;0.30;;;;;;;;;;5384537;26;20265;-74
2024/04/10 07:54:36;;;;;;;0.30;0.30;;;;;;;;;;5355965;26;20255;-73
2024/04/10 07:59:06;;;;;;;0.37;0.37;;;;;;;;;;5466645;25;20639;-75
2024/04/10 08:01:33;;;;;;;0.30;0.30;;;;;;;;;;5458922;25;20256;-75
2024/04/10 08:04:18;;;;;;;0.40;0.40;;;;;;;;;;5451750;26;20332;-75
2024/04/10 08:06:46;;;;;;;0.30;0.30;;;;;;;;;;5440361;26;20298;-75
2024/04/10 08:09:12;;;;;;;0.30;0.30;;;;;;;;;;5440283;26;20257;-76
2024/04/10 08:11:38;;;;;;;0.30;0.30;;;;;;;;;;5458143;26;20259;-75
2024/04/10 08:14:06;;;;;;;0.30;0.30;;;;;;;;;;5441327;26;20260;-75
2024/04/10 08:16:33;;;;;;;0.30;0.30;;;;;;;;;;5436403;26;20260;-77
2024/04/10 08:19:00;;;;;;;0.30;0.30;;;;;;;;;;5452864;26;20247;-74
2024/04/10 08:21:29;;;;;;;0.30;0.30;;;;;;;;;;5458926;26;20312;-75
2024/04/10 08:23:55;;;;;;;0.40;0.40;;;;;;;;;;5448177;26;21078;-74
2024/04/10 08:26:22;;;;;;;0.20;0.20;;;;;;;;;;5447590;26;21566;-76
2024/04/10 08:28:50;;;;;;;1.30;1.30;;;;;;;;;;5457400;26;20293;-76
2024/04/10 08:31:24;;;;;;;0.30;0.30;;;;;;;;;;5440518;26;20952;-74
2024/04/10 08:33:52;;;;;;;0.30;0.30;;;;;;;;;;5444616;26;20661;-74
2024/04/10 08:36:22;;;;;;;0.30;0.30;;;;;;;;;;5449395;26;20256;-74
2024/04/10 08:38:49;;;;;;;0.30;0.30;;;;;;;;;;5409359;26;20835;-75
2024/04/10 08:41:18;;;;;;;0.30;0.30;;;;;;;;;;5408777;26;20269;-74
2024/04/10 08:43:46;;;;;;;0.30;0.30;;;;;;;;;;5409021;26;20315;-74
2024/04/10 08:46:17;;;;;;;0.20;0.20;;;;;;;;;;5405689;26;20322;-74
2024/04/10 08:48:45;;;;;;;0.30;0.30;;;;;;;;;;5408435;26;20264;-74
2024/04/10 08:51:13;;;;;;;0.40;0.40;;;;;;;;;;5411731;26;20381;-74
2024/04/10 08:53:45;;;;;;;0.30;0.30;;;;;;;;;;5412015;26;20776;-76
2024/04/10 08:56:14;;;;;;;0.30;0.30;;;;;;;;;;5406926;26;20261;-76
2024/04/10 08:58:41;;;;;;;0.20;0.20;;;;;;;;;;5410253;26;20283;-74
2024/04/10 09:01:08;;;;;;;0.30;0.30;;;;;;;;;;5400984;26;20261;-74
2024/04/10 09:03:36;;;;;;;0.30;0.30;;;;;;;;;;5402899;26;20295;-75
2024/04/10 09:06:06;;;;;;;9.43;1.50;;;;;;;;;;5402557;26;20630;-74
2024/04/10 09:08:37;;;;;;;0.30;0.30;;;;;;;;;;5396019;26;20265;-74
2024/04/10 09:11:04;;;;;;;0.30;0.30;;;;;;;;;;5390039;26;20245;-76
2024/04/10 09:13:32;;;;;;;2.27;2.10;;;;;;;;;;5388993;26;20318;-74
2024/04/10 09:16:00;;;;;;;0.20;0.20;;;;;;;;;;5392447;26;20261;-74
2024/04/10 09:18:27;;;;;;;0.30;0.30;;;;;;;;;;5392174;26;20268;-74
2024/04/10 09:21:07;;;;;;;0.70;0.70;;;;;;;;;;5395312;26;20296;-74
2024/04/10 09:23:37;;;;;;;0.57;0.57;;;;;;;;;;5393151;26;20301;-74
2024/04/10 09:26:06;;;;;;;0.30;0.30;;;;;;;;;;5392398;26;20747;-74
2024/04/10 09:28:33;;;;;;;0.30;0.30;;;;;;;;;;5388963;26;20264;-74
2024/04/10 09:31:00;;;;;;;0.20;0.20;;;;;;;;;;5394323;26;20264;-73
2024/04/10 09:33:32;;;;;;;0.30;0.30;;;;;;;;;;5381550;26;20286;-74
2024/04/10 09:36:02;;;;;;;0.30;0.30;;;;;;;;;;5375757;26;20350;-77
2024/04/10 09:38:33;;;;;;;0.30;0.30;;;;;;;;;;5383959;26;20265;-75
2024/04/10 09:41:04;;;;;;;0.30;0.30;;;;;;;;;;5387001;26;20265;-75
2024/04/10 09:43:31;;;;;;;0.20;0.20;;;;;;;;;;5385314;26;20265;-75
2024/04/10 09:46:01;;;;;;;0.30;0.30;;;;;;;;;;5389384;26;20258;-77
2024/04/10 09:48:33;;;;;;;0.20;0.20;;;;;;;;;;5384186;26;20295;-74
2024/04/10 09:51:07;;;;;;;0.30;0.30;;;;;;;;;;5386427;26;20312;-74
2024/04/10 09:53:34;;;;;;;0.30;0.30;;;;;;;;;;5417412;26;20257;-75
2024/04/10 09:56:03;;;;;;;0.30;0.30;;;;;;;;;;5391938;26;20717;-75
2024/04/10 09:58:33;;;;;;;0.23;0.23;;;;;;;;;;5389855;26;20313;-76
2024/04/10 10:01:27;;;;;;;0.30;0.30;;;;;;;;;;5385949;26;20261;-74
2024/04/10 10:03:55;;;;;;;0.30;0.30;;;;;;;;;;5386850;26;20268;-78
2024/04/10 10:06:30;;;;;;;0.30;0.30;;;;;;;;;;5386146;26;20366;-79
2024/04/10 10:08:58;;;;;;;0.30;0.30;;;;;;;;;;5391861;26;20256;-80
2024/04/10 10:11:27;;;;;;;0.20;0.20;;;;;;;;;;5392986;26;20257;-76
2024/04/10 10:14:02;;;;;;;0.20;0.20;;;;;;;;;;5421862;26;20647;-76
2024/04/10 10:16:34;;;;;;;0.30;0.30;;;;;;;;;;5425456;26;20743;-76
2024/04/10 10:19:01;;;;;;;0.20;0.20;;;;;;;;;;5434273;26;20605;-76
2024/04/10 10:21:30;;;;;;;0.30;0.30;;;;;;;;;;5430170;26;20295;-74
2024/04/10 10:24:04;;;;;;;0.20;0.20;;;;;;;;;;5437513;26;20259;-73
2024/04/10 10:26:31;;;;;;;0.30;0.30;;;;;;;;;;5429967;26;20299;-76
2024/04/10 10:29:06;;;;;;;0.30;0.30;;;;;;;;;;5423022;26;20859;-76
2024/04/10 10:31:37;;;;;;;0.20;0.20;;;;;;;;;;5424141;26;20910;-76
2024/04/10 10:34:10;;;;;;;0.30;0.30;;;;;;;;;;5422225;26;20320;-76
2024/04/10 10:36:37;;;;;;;0.30;0.30;;;;;;;;;;5426623;26;20286;-76
2024/04/10 10:39:11;;;;;;;0.40;0.40;;;;;;;;;;5422878;26;20256;-75
2024/04/10 10:41:38;;;;;;;0.30;0.30;;;;;;;;;;5423158;26;20354;-75
2024/04/10 10:44:04;;;;;;;0.40;0.40;;;;;;;;;;5420850;26;20575;-75
2024/04/10 10:46:35;;;;;;;0.30;0.30;;;;;;;;;;5422836;26;20311;-73
2024/04/10 10:49:04;;;;;;;0.40;0.40;;;;;;;;;;5425844;26;20294;-73
2024/04/10 10:51:32;;;;;;;0.30;0.30;;;;;;;;;;5424924;26;20287;-73
2024/04/10 10:53:59;;;;;;;0.30;0.30;;;;;;;;;;5431405;26;20308;-73
2024/04/10 10:56:27;;;;;;;0.37;0.37;;;;;;;;;;5431050;26;20290;-73
2024/04/10 10:59:06;;;;;;;0.30;0.30;;;;;;;;;;5456279;26;20256;-73
2024/04/10 11:01:39;;;;;;;0.30;0.30;;;;;;;;;;5424670;26;20265;-72
2024/04/10 11:04:15;;;;;;;0.40;0.40;;;;;;;;;;5429016;26;20263;-73
2024/04/10 11:06:48;;;;;;;0.40;0.40;;;;;;;;;;5448251;26;20268;-73
2024/04/10 11:09:18;;;;;;;0.40;0.40;;;;;;;;;;5431635;26;20303;-72
2024/04/10 11:11:44;;;;;;;0.30;0.30;;;;;;;;;;5428806;26;20260;-73
2024/04/10 11:14:35;;;;;;;0.20;0.20;;;;;;;;;;5425852;26;20734;-72
2024/04/10 11:17:09;;;;;;;0.30;0.30;;;;;;;;;;5421562;26;20740;-72
2024/04/10 11:19:38;;;;;;;0.38;0.38;;;;;;;;;;5422109;26;20345;-72
2024/04/10 11:22:19;;;;;;;0.30;0.30;;;;;;;;;;5423844;26;20314;-72
2024/04/10 11:24:46;;;;;;;0.30;0.30;;;;;;;;;;5422030;26;21071;-73
2024/04/10 11:27:16;;;;;;;0.50;0.50;;;;;;;;;;5424029;26;20264;-72
2024/04/10 11:29:48;;;;;;;0.30;0.30;;;;;;;;;;5421827;26;20798;-72
2024/04/10 11:32:15;;;;;;;0.32;0.32;;;;;;;;;;5420605;26;20251;-72
2024/04/10 11:34:46;;;;;;;0.30;0.30;;;;;;;;;;5423805;26;20252;-72
2024/04/10 11:37:13;;;;;;;0.40;0.40;;;;;;;;;;5424680;26;20359;-72
2024/04/10 11:39:39;;;;;;;0.30;0.30;;;;;;;;;;5425929;26;20748;-72
2024/04/10 11:42:06;;;;;;;0.60;0.60;;;;;;;;;;5424423;26;20298;-72
2024/04/10 11:44:32;;;;;;;0.30;0.30;;;;;;;;;;5422717;26;20660;-72
2024/04/10 11:46:59;;;;;;;0.30;0.30;;;;;;;;;;5420410;26;20303;-72
2024/04/10 11:49:26;;;;;;;34.90;1.17;;;;;;;;;;5415539;26;20269;-74
2024/04/10 11:51:53;;;;;;;0.30;0.30;;;;;;;;;;5422236;26;20265;-75
2024/04/10 11:54:19;;;;;;;0.30;0.30;;;;;;;;;;5420886;26;20259;-75
2024/04/10 11:56:46;;;;;;;0.30;0.30;;;;;;;;;;5423368;26;20797;-75
2024/04/10 11:59:12;;;;;;;0.30;0.30;;;;;;;;;;5421494;26;20258;-74
2024/04/10 12:01:39;;;;;;;0.20;0.20;;;;;;;;;;5420478;26;21007;-74
2024/04/10 12:04:06;;;;;;;0.40;0.40;;;;;;;;;;5418998;26;20290;-74
2024/04/10 12:06:33;;;;;;;0.75;0.75;;;;;;;;;;5419306;26;20681;-75
2024/04/10 12:09:01;;;;;;;0.55;0.55;;;;;;;;;;5430383;26;20350;-74
2024/04/10 12:11:27;;;;;;;0.30;0.30;;;;;;;;;;5421195;26;20287;-74
2024/04/10 12:13:54;;;;;;;0.30;0.30;;;;;;;;;;5419185;26;20308;-75
2024/04/10 12:16:21;;;;;;;3.47;1.20;;;;;;;;;;5420881;26;20264;-75
2024/04/10 12:18:47;;;;;;;0.30;0.30;;;;;;;;;;5418378;26;20259;-74
2024/04/10 12:21:15;;;;;;;0.30;0.30;;;;;;;;;;5416207;26;20255;-74
2024/04/10 12:23:42;;;;;;;0.30;0.30;;;;;;;;;;5427116;26;20244;-74
2024/04/10 12:26:08;;;;;;;0.55;0.55;;;;;;;;;;5426648;26;20797;-75
2024/04/10 12:28:35;;;;;;;0.30;0.30;;;;;;;;;;5420279;26;20700;-74
2024/04/10 12:31:03;;;;;;;0.30;0.30;;;;;;;;;;5419770;26;20271;-75
2024/04/10 12:33:30;;;;;;;0.30;0.30;;;;;;;;;;5426056;26;20343;-72
2024/04/10 12:38:45;;;;;;;0.30;0.30;;;;;;;;;;5425858;26;20600;-72
2024/04/10 12:41:12;;;;;;;0.30;0.30;;;;;;;;;;5430723;26;20260;-73
2024/04/10 12:43:42;;;;;;;0.30;0.30;;;;;;;;;;5425709;26;20639;-72
2024/04/10 12:46:09;;;;;;;0.40;0.40;;;;;;;;;;5425888;26;20291;-73
2024/04/10 12:48:38;;;;;;;0.68;0.68;;;;;;;;;;5422601;26;20352;-72
2024/04/10 12:51:05;;;;;;;0.73;0.73;;;;;;;;;;5420175;26;20330;-72
2024/04/10 12:53:56;;;;;;;0.40;0.40;;;;;;;;;;5425254;26;20294;-73
2024/04/10 12:56:23;;;;;;;0.50;0.50;;;;;;;;;;5425986;26;20298;-73
2024/04/10 12:58:51;;;;;;;0.50;0.50;;;;;;;;;;5425099;26;20263;-73
2024/04/10 13:01:17;;;;;;;0.20;0.20;;;;;;;;;;5420356;26;20305;-74
2024/04/10 13:03:44;;;;;;;0.40;0.40;;;;;;;;;;5429629;26;20340;-73
2024/04/10 13:06:11;;;;;;;0.30;0.30;;;;;;;;;;5427469;26;20271;-72
2024/04/10 13:08:37;;;;;;;0.50;0.50;;;;;;;;;;5428554;26;20263;-73
2024/04/10 13:11:10;;;;;;;0.40;0.40;;;;;;;;;;5418216;26;20298;-72
2024/04/10 13:13:37;;;;;;;0.30;0.30;;;;;;;;;;5414782;26;20252;-72
2024/04/10 13:16:05;;;;;;;0.45;0.45;;;;;;;;;;5415800;26;20279;-72
2024/04/10 13:18:33;;;;;;;0.30;0.30;;;;;;;;;;5421596;26;20286;-73
2024/04/10 13:21:03;;;;;;;0.35;0.35;;;;;;;;;;5422758;26;20319;-72
2024/04/10 13:23:42;;;;;;;0.30;0.30;;;;;;;;;;5425201;26;20275;-72
2024/04/10 13:26:11;;;;;;;0.30;0.30;;;;;;;;;;5422910;26;20701;-73
2024/04/10 13:28:41;;;;;;;0.40;0.40;;;;;;;;;;5429001;26;20351;-73
2024/04/10 13:31:14;;;;;;;0.30;0.30;;;;;;;;;;5423513;26;20741;-72
2024/04/10 13:33:44;;;;;;;0.20;0.20;;;;;;;;;;5422652;26;20297;-74
2024/04/10 13:36:12;;;;;;;0.30;0.30;;;;;;;;;;5422410;26;20696;-72
2024/04/10 13:38:43;;;;;;;0.30;0.30;;;;;;;;;;5454578;26;20807;-72
2024/04/10 13:41:11;;;;;;;0.40;0.40;;;;;;;;;;5431354;26;20299;-75
2024/04/10 13:43:42;;;;;;;0.30;0.30;;;;;;;;;;5431806;26;20261;-75
2024/04/10 13:46:09;;;;;;;0.30;0.30;;;;;;;;;;5432114;26;20259;-72
2024/04/10 13:48:38;;;;;;;0.30;0.30;;;;;;;;;;5427448;26;20273;-75
2024/04/10 13:51:05;;;;;;;0.30;0.30;;;;;;;;;;5423808;26;21943;-74
2024/04/10 13:54:01;;;;;;;0.30;0.30;;;;;;;;;;5421436;26;20301;-72
2024/04/10 13:56:28;;;;;;;0.30;0.30;;;;;;;;;;5422726;26;20257;-74
2024/04/10 13:58:54;;;;;;;0.30;0.30;;;;;;;;;;5425359;26;20670;-73
2024/04/10 14:01:22;;;;;;;0.50;0.50;;;;;;;;;;5426194;26;20307;-74
2024/04/10 14:03:53;;;;;;;0.20;0.20;;;;;;;;;;5421495;26;20256;-72
2024/04/10 14:06:25;;;;;;;0.30;0.30;;;;;;;;;;5425252;26;20259;-75
2024/04/10 14:08:53;;;;;;;0.30;0.30;;;;;;;;;;5418213;26;20252;-75
2024/04/10 14:11:20;;;;;;;0.35;0.35;;;;;;;;;;5420813;26;20322;-75
2024/04/10 14:13:47;;;;;;;0.30;0.30;;;;;;;;;;5426583;26;20256;-74
2024/04/10 14:16:13;;;;;;;0.30;0.30;;;;;;;;;;5422439;26;20585;-73
2024/04/10 14:18:41;;;;;;;0.30;0.30;;;;;;;;;;5422898;26;20271;-72
2024/04/10 14:21:10;;;;;;;0.30;0.30;;;;;;;;;;5423400;26;20298;-72
2024/04/10 14:23:39;;;;;;;0.30;0.30;;;;;;;;;;5425763;26;20287;-74
2024/04/10 14:26:14;;;;;;;0.45;0.45;;;;;;;;;;5436917;26;20265;-72
2024/04/10 14:28:41;;;;;;;6.97;1.58;;;;;;;;;;5429478;26;20259;-72
2024/04/10 14:31:10;;;;;;;0.30;0.30;;;;;;;;;;5432751;26;20259;-73
2024/04/10 14:33:39;;;;;;;0.35;0.35;;;;;;;;;;5423583;26;20598;-72
2024/04/10 14:36:07;;;;;;;0.30;0.30;;;;;;;;;;5424122;26;20267;-73
2024/04/10 14:38:35;;;;;;;0.30;0.30;;;;;;;;;;5428369;26;20352;-73
2024/04/10 14:41:07;;;;;;;0.52;0.52;;;;;;;;;;5429717;26;20260;-75
2024/04/10 14:43:35;;;;;;;0.33;0.33;;;;;;;;;;5407075;26;20353;-74
2024/04/10 14:46:13;;;;;;;0.50;0.50;;;;;;;;;;5416271;26;20365;-72
2024/04/10 14:48:45;;;;;;;0.30;0.30;;;;;;;;;;5404819;26;20259;-75
2024/04/10 14:51:13;;;;;;;0.30;0.30;;;;;;;;;;5425446;26;20332;-74
2024/04/10 14:53:42;;;;;;;0.40;0.40;;;;;;;;;;5427861;26;20784;-73
2024/04/10 14:56:13;;;;;;;0.30;0.30;;;;;;;;;;5428118;26;20257;-73
2024/04/10 14:58:40;;;;;;;0.30;0.30;;;;;;;;;;5428221;26;20268;-72
2024/04/10 15:01:18;;;;;;;0.30;0.30;;;;;;;;;;5431897;26;20694;-72